createdAt,value
2019-03-16T00:00:34.899Z,10.61
2019-03-16T00:03:08.435Z,10.67
2019-03-16T00:05:49.180Z,10.62
2019-03-16T00:08:20.542Z,10.65
2019-03-16T00:10:55.186Z,10.66
2019-03-16T00:13:26.297Z,10.69
2019-03-16T00:15:57.725Z,10.62
2019-03-16T00:18:50.039Z,10.61
2019-03-16T00:21:22.503Z,10.55
2019-03-16T00:23:53.626Z,10.54
2019-03-16T00:26:24.833Z,10.53
2019-03-16T00:29:06.685Z,10.57
2019-03-16T00:31:39.856Z,10.55
2019-03-16T00:34:10.683Z,10.57
2019-03-16T00:36:42.356Z,10.53
2019-03-16T00:39:21.366Z,10.57
2019-03-16T00:42:05.060Z,10.65
2019-03-16T00:44:40.319Z,10.63
2019-03-16T00:47:10.954Z,10.67
2019-03-16T00:49:44.932Z,10.65
2019-03-16T00:52:16.258Z,10.66
2019-03-16T00:55:02.449Z,10.72
2019-03-16T00:57:33.385Z,10.73
2019-03-16T01:00:04.186Z,10.71
2019-03-16T01:02:35.164Z,10.73
2019-03-16T01:05:07.796Z,10.82
2019-03-16T01:07:39.176Z,10.80
2019-03-16T01:10:10.322Z,10.82
2019-03-16T01:12:42.149Z,10.85
2019-03-16T01:15:12.909Z,10.88
2019-03-16T01:17:44.902Z,10.86
2019-03-16T01:20:15.635Z,10.87
2019-03-16T01:22:47.404Z,10.99
2019-03-16T01:25:18.983Z,10.81
2019-03-16T01:27:50.488Z,10.86
2019-03-16T01:30:21.549Z,10.93
2019-03-16T01:32:52.579Z,10.92
2019-03-16T01:35:23.238Z,10.95
2019-03-16T01:37:54.710Z,11.02
2019-03-16T01:40:26.937Z,10.91
2019-03-16T01:42:58.879Z,11.02
2019-03-16T01:45:37.413Z,10.95
2019-03-16T01:48:10.340Z,10.93
2019-03-16T01:50:43.358Z,10.96
2019-03-16T01:53:14.885Z,10.97
2019-03-16T01:55:47.413Z,10.96
2019-03-16T01:58:20.215Z,10.94
2019-03-16T02:00:52.546Z,10.95
2019-03-16T03:01:52.839Z,10.58
2019-03-16T03:04:23.146Z,10.66
2019-03-16T03:06:53.852Z,10.70
2019-03-16T03:09:25.672Z,10.69
2019-03-16T03:12:03.681Z,10.76
2019-03-16T03:14:35.157Z,10.73
2019-03-16T03:17:06.098Z,10.80
2019-03-16T03:19:37.824Z,10.79
2019-03-16T03:22:10.184Z,10.74
2019-03-16T03:24:44.156Z,10.79
2019-03-16T03:27:14.079Z,10.74
2019-03-16T03:29:51.104Z,10.80
2019-03-16T03:32:25.646Z,10.75
2019-03-16T03:34:58.643Z,10.77
2019-03-16T03:37:31.861Z,10.82
2019-03-16T03:40:12.746Z,10.73
2019-03-16T03:43:11.153Z,10.77
2019-03-16T03:45:45.565Z,10.74
2019-03-16T03:48:21.978Z,10.74
2019-03-16T03:50:53.304Z,10.79
2019-03-16T03:53:24.729Z,10.74
2019-03-16T03:55:56.751Z,10.69
2019-03-16T03:58:28.316Z,10.78
2019-03-16T04:00:59.418Z,10.68
2019-03-16T04:03:30.572Z,10.65
2019-03-16T04:06:22.171Z,10.67
2019-03-16T04:08:54.016Z,10.71
2019-03-16T04:11:28.399Z,10.68
2019-03-16T04:14:01.886Z,10.57
2019-03-16T04:16:33.198Z,10.65
2019-03-16T04:19:06.384Z,10.63
2019-03-16T04:21:37.426Z,10.63
2019-03-16T04:24:08.832Z,10.59
2019-03-16T04:26:40.056Z,10.60
2019-03-16T04:29:11.506Z,10.60
2019-03-16T04:31:42.485Z,10.57
2019-03-16T04:34:13.242Z,10.54
2019-03-16T04:36:45.639Z,10.58
2019-03-16T04:39:24.191Z,10.60
2019-03-16T04:41:55.895Z,10.54
2019-03-16T04:44:27.482Z,10.51
2019-03-16T04:46:58.164Z,10.65
2019-03-16T04:49:30.062Z,10.54
2019-03-16T04:52:03.302Z,10.58
2019-03-16T04:54:34.681Z,10.44
2019-03-16T04:57:06.003Z,10.44
2019-03-16T04:59:37.140Z,10.43
2019-03-16T05:02:08.203Z,10.44
2019-03-16T05:04:42.800Z,10.44
2019-03-16T05:07:13.583Z,10.33
2019-03-16T05:09:44.626Z,10.35
2019-03-16T05:12:15.660Z,10.28
2019-03-16T05:14:46.762Z,10.22
2019-03-16T05:17:17.719Z,10.16
2019-03-16T05:19:49.387Z,10.18
2019-03-16T05:22:20.159Z,10.20
2019-03-16T05:24:51.541Z,10.21
2019-03-16T05:27:22.699Z,10.22
2019-03-16T05:29:54.016Z,10.08
2019-03-16T05:32:26.442Z,10.10
2019-03-16T05:34:57.042Z,10.10
2019-03-16T05:37:30.157Z,10.03
2019-03-16T05:40:01.558Z,9.96
2019-03-16T05:42:33.245Z,9.94
2019-03-16T05:45:04.941Z,9.97
2019-03-16T05:47:36.264Z,9.98
2019-03-16T05:50:07.941Z,9.95
2019-03-16T05:52:39.152Z,9.92
2019-03-16T05:55:10.990Z,10.00
2019-03-16T05:57:42.476Z,9.96
2019-03-16T06:00:14.207Z,10.00
2019-03-16T06:02:45.884Z,10.12
2019-03-16T06:05:17.458Z,10.08
2019-03-16T06:07:48.511Z,10.09
2019-03-16T06:10:19.499Z,10.20
2019-03-16T06:12:51.190Z,10.21
2019-03-16T06:15:26.407Z,10.16
2019-03-16T06:17:57.893Z,10.19
2019-03-16T06:20:30.154Z,10.27
2019-03-16T06:23:00.850Z,10.28
2019-03-16T06:25:32.251Z,10.37
2019-03-16T06:28:04.015Z,10.42
2019-03-16T06:30:46.245Z,10.43
2019-03-16T06:33:17.203Z,10.48
2019-03-16T06:35:48.225Z,10.42
2019-03-16T06:38:19.096Z,10.38
2019-03-16T06:40:50.096Z,10.53
2019-03-16T06:43:21.186Z,10.57
2019-03-16T06:45:52.968Z,10.67
2019-03-16T06:48:23.956Z,10.67
2019-03-16T06:51:38.371Z,10.68
2019-03-16T06:54:09.353Z,11.19
2019-03-16T06:56:40.733Z,11.21
2019-03-16T06:59:11.586Z,11.76
2019-03-16T07:01:43.960Z,12.05
2019-03-16T07:04:15.666Z,11.77
2019-03-16T07:06:46.763Z,12.19
2019-03-16T07:09:18.519Z,12.49
2019-03-16T07:11:49.856Z,12.78
2019-03-16T07:14:35.576Z,12.63
2019-03-16T07:17:08.990Z,12.27
2019-03-16T07:19:40.564Z,12.24
2019-03-16T07:22:11.907Z,12.80
2019-03-16T07:24:44.698Z,12.61
2019-03-16T07:27:25.575Z,12.58
2019-03-16T07:30:02.608Z,12.35
2019-03-16T07:32:33.559Z,11.95
2019-03-16T07:35:05.336Z,12.06
2019-03-16T07:37:36.203Z,11.86
2019-03-16T07:40:07.084Z,11.92
2019-03-16T07:42:38.093Z,12.00
2019-03-16T07:45:09.691Z,12.05
2019-03-16T07:47:50.854Z,11.97
2019-03-16T07:50:21.944Z,12.50
2019-03-16T07:52:53.123Z,12.09
2019-03-16T07:55:24.456Z,12.26
2019-03-16T07:57:56.027Z,12.42
2019-03-16T08:00:29.268Z,12.46
2019-03-16T08:02:59.919Z,12.56
2019-03-16T08:05:31.463Z,12.65
2019-03-16T08:08:03.829Z,12.93
2019-03-16T08:10:34.922Z,12.65
2019-03-16T08:13:05.966Z,12.44
2019-03-16T08:15:36.657Z,12.50
2019-03-16T08:18:08.053Z,12.87
2019-03-16T08:20:39.153Z,12.78
2019-03-16T08:23:09.920Z,12.60
2019-03-16T08:25:47.490Z,12.35
2019-03-16T08:28:18.646Z,12.43
2019-03-16T08:30:51.785Z,12.25
2019-03-16T08:33:23.082Z,12.45
2019-03-16T08:35:54.473Z,12.48
2019-03-16T08:38:25.537Z,12.58
2019-03-16T08:40:56.340Z,12.87
2019-03-16T08:43:27.038Z,13.05
2019-03-16T08:46:08.719Z,12.97
2019-03-16T08:48:41.701Z,13.36
2019-03-16T08:51:13.403Z,13.35
2019-03-16T08:53:45.320Z,13.32
2019-03-16T08:56:16.783Z,13.40
2019-03-16T08:58:47.128Z,13.64
2019-03-16T09:01:18.714Z,14.15
2019-03-16T09:03:49.438Z,14.98
2019-03-16T09:06:20.670Z,15.21
2019-03-16T09:08:51.743Z,16.04
2019-03-16T09:11:22.972Z,15.20
2019-03-16T09:13:53.957Z,15.09
2019-03-16T09:16:25.319Z,15.39
2019-03-16T09:19:03.108Z,15.14
2019-03-16T09:21:34.226Z,15.91
2019-03-16T09:24:04.854Z,14.54
2019-03-16T09:26:36.236Z,15.31
2019-03-16T09:29:15.056Z,15.82
2019-03-16T09:31:40.193Z,16.21
2019-03-16T09:34:11.086Z,16.32
2019-03-16T09:36:42.735Z,17.42
2019-03-16T09:39:15.760Z,17.62
2019-03-16T09:41:47.479Z,17.51
2019-03-16T09:44:21.016Z,17.67
2019-03-16T09:46:51.949Z,16.68
2019-03-16T09:49:23.368Z,16.17
2019-03-16T09:51:54.407Z,15.99
2019-03-16T09:54:29.832Z,14.87
2019-03-16T09:57:01.825Z,14.98
2019-03-16T09:59:33.902Z,14.78
2019-03-16T10:02:04.596Z,14.09
2019-03-16T10:04:36.523Z,13.60
2019-03-16T10:07:07.955Z,13.40
2019-03-16T10:09:38.995Z,13.29
2019-03-16T10:12:10.324Z,13.35
2019-03-16T10:14:41.315Z,13.59
2019-03-16T10:17:13.945Z,13.76
2019-03-16T10:19:44.938Z,13.65
2019-03-16T10:22:16.129Z,13.92
2019-03-16T10:24:51.287Z,14.66
2019-03-16T10:27:22.692Z,15.42
2019-03-16T10:29:54.294Z,14.94
2019-03-16T10:32:25.806Z,15.30
2019-03-16T10:34:57.509Z,14.92
2019-03-16T10:37:31.790Z,15.18
2019-03-16T10:40:02.735Z,15.59
2019-03-16T10:42:34.088Z,15.37
2019-03-16T10:45:05.886Z,16.02
2019-03-16T10:47:43.050Z,16.20
2019-03-16T10:50:18.249Z,15.58
2019-03-16T10:52:50.156Z,16.41
2019-03-16T10:55:21.789Z,15.83
2019-03-16T10:57:52.625Z,16.51
2019-03-16T11:00:23.309Z,16.47
2019-03-16T11:02:54.990Z,16.27
2019-03-16T11:05:25.591Z,17.52
2019-03-16T11:08:00.775Z,17.34
2019-03-16T11:10:31.515Z,18.01
2019-03-16T11:13:03.081Z,18.37
2019-03-16T11:15:33.964Z,17.95
2019-03-16T11:18:05.419Z,17.72
2019-03-16T11:20:36.483Z,19.05
2019-03-16T11:23:07.550Z,18.94
2019-03-16T11:25:39.809Z,19.32
2019-03-16T11:28:10.520Z,19.88
2019-03-16T11:30:41.889Z,19.06
2019-03-16T11:33:13.404Z,19.28
2019-03-16T11:35:44.504Z,18.54
2019-03-16T11:38:15.609Z,19.42
2019-03-16T11:40:47.775Z,17.94
2019-03-16T11:43:20.249Z,18.36
2019-03-16T11:45:51.309Z,19.03
2019-03-16T11:48:22.842Z,18.21
2019-03-16T11:51:04.275Z,18.68
2019-03-16T11:53:37.945Z,18.95
2019-03-16T11:56:18.230Z,19.03
2019-03-16T11:58:52.004Z,18.87
2019-03-16T12:01:25.581Z,18.99
2019-03-16T12:03:57.135Z,19.49
2019-03-16T12:06:28.962Z,19.79
2019-03-16T12:09:08.058Z,18.62
2019-03-16T12:11:38.939Z,18.84
2019-03-16T12:14:10.284Z,19.29
2019-03-16T12:16:41.306Z,19.15
2019-03-16T12:19:12.961Z,19.03
2019-03-16T12:21:51.412Z,19.49
2019-03-16T12:24:22.532Z,20.55
2019-03-16T12:26:56.498Z,20.67
2019-03-16T12:29:33.847Z,20.27
2019-03-16T12:32:00.771Z,22.05
2019-03-16T12:34:32.115Z,21.72
2019-03-16T12:37:04.019Z,20.49
2019-03-16T12:39:35.855Z,20.15
2019-03-16T12:42:18.192Z,20.08
2019-03-16T12:44:59.505Z,20.11
2019-03-16T12:47:34.761Z,20.86
2019-03-16T12:50:06.517Z,20.24
2019-03-16T12:52:47.944Z,20.09
2019-03-16T12:55:48.936Z,20.58
2019-03-16T12:58:20.384Z,21.09
2019-03-16T13:00:51.595Z,20.10
2019-03-16T13:03:23.000Z,19.84
2019-03-16T13:06:32.716Z,19.83
2019-03-16T13:09:04.521Z,20.13
2019-03-16T13:11:53.333Z,19.66
2019-03-16T13:14:25.076Z,19.88
2019-03-16T13:17:07.035Z,19.99
2019-03-16T13:19:38.528Z,19.49
2019-03-16T13:22:19.458Z,19.72
2019-03-16T13:24:50.976Z,19.61
2019-03-16T13:27:32.431Z,19.42
2019-03-16T13:30:15.862Z,19.15
2019-03-16T13:33:25.910Z,19.06
2019-03-16T13:36:31.155Z,19.22
2019-03-16T13:39:08.894Z,19.29
2019-03-16T13:41:41.755Z,19.36
2019-03-16T13:44:50.919Z,19.82
2019-03-16T13:47:22.118Z,19.99
2019-03-16T13:49:57.486Z,19.45
2019-03-16T13:52:37.705Z,20.14
2019-03-16T13:55:45.053Z,19.82
2019-03-16T13:58:29.148Z,19.83
2019-03-16T14:01:07.832Z,20.45
2019-03-16T14:03:39.104Z,20.55
2019-03-16T14:06:32.590Z,20.04
2019-03-16T14:09:04.249Z,19.71
2019-03-16T14:11:35.316Z,20.01
2019-03-16T14:14:29.347Z,20.43
2019-03-16T14:17:00.683Z,20.11
2019-03-16T14:19:52.961Z,20.00
2019-03-16T14:22:24.697Z,20.43
2019-03-16T14:24:56.171Z,20.50
2019-03-16T14:27:27.423Z,20.26
2019-03-16T14:29:58.803Z,20.43
2019-03-16T14:32:30.199Z,20.13
2019-03-16T14:35:01.662Z,20.16
2019-03-16T14:37:32.715Z,20.25
2019-03-16T14:40:03.155Z,20.27
2019-03-16T14:42:41.981Z,20.09
2019-03-16T14:45:14.197Z,19.60
2019-03-16T14:47:45.539Z,20.04
2019-03-16T14:50:19.111Z,20.29
2019-03-16T14:52:50.752Z,20.32
2019-03-16T14:55:21.772Z,20.30
2019-03-16T14:58:03.656Z,20.83
2019-03-16T15:00:38.609Z,20.50
2019-03-16T15:03:07.358Z,20.43
2019-03-16T15:05:38.822Z,21.22
2019-03-16T15:08:10.131Z,21.82
2019-03-16T15:10:41.122Z,22.82
2019-03-16T15:13:12.250Z,22.78
2019-03-16T15:15:42.882Z,22.42
2019-03-16T15:18:14.538Z,22.47
2019-03-16T15:20:44.863Z,23.65
2019-03-16T15:23:15.852Z,23.15
2019-03-16T15:25:46.885Z,23.09
2019-03-16T15:28:18.205Z,23.52
2019-03-16T15:31:02.375Z,23.74
2019-03-16T15:33:32.700Z,24.08
2019-03-16T15:36:03.949Z,23.74
2019-03-16T15:38:35.076Z,23.65
2019-03-16T15:41:06.072Z,24.61
2019-03-16T15:43:37.613Z,24.03
2019-03-16T15:46:08.666Z,24.48
2019-03-16T15:48:39.628Z,22.51
2019-03-16T15:51:10.842Z,23.10
2019-03-16T15:53:41.129Z,23.54
2019-03-16T15:56:11.812Z,22.98
2019-03-16T15:58:43.204Z,22.33
2019-03-16T16:01:14.511Z,21.88
2019-03-16T16:03:46.240Z,21.46
2019-03-16T16:06:16.875Z,20.97
2019-03-16T16:08:48.672Z,21.49
2019-03-16T16:11:20.114Z,22.06
2019-03-16T16:13:50.404Z,21.68
2019-03-16T16:16:21.079Z,21.17
2019-03-16T16:18:52.828Z,21.08
2019-03-16T16:21:23.713Z,21.99
2019-03-16T16:23:54.437Z,21.19
2019-03-16T16:26:25.457Z,21.32
2019-03-16T16:28:56.873Z,20.74
2019-03-16T16:31:28.574Z,20.63
2019-03-16T16:34:02.758Z,20.59
2019-03-16T16:36:33.086Z,20.67
2019-03-16T16:39:18.414Z,20.63
2019-03-16T16:41:50.206Z,20.43
2019-03-16T16:44:28.909Z,21.10
2019-03-16T16:47:00.294Z,20.14
2019-03-16T16:49:35.993Z,20.44
2019-03-16T16:52:07.071Z,20.56
2019-03-16T16:58:40.877Z,18.84
2019-03-16T17:01:12.018Z,18.26
2019-03-16T17:03:44.127Z,17.16
2019-03-16T17:06:15.461Z,16.26
2019-03-16T17:08:53.816Z,15.98
2019-03-16T17:11:26.442Z,15.70
2019-03-16T17:13:57.942Z,15.46
2019-03-16T17:16:39.702Z,15.22
2019-03-16T17:19:12.495Z,15.22
2019-03-16T17:22:30.094Z,14.93
2019-03-16T17:25:01.141Z,14.72
2019-03-16T17:27:32.710Z,14.52
2019-03-16T17:30:05.609Z,14.46
2019-03-16T17:33:00.482Z,14.27
2019-03-16T17:35:31.121Z,14.05
2019-03-16T17:39:03.309Z,14.04
2019-03-16T17:41:49.397Z,14.14
2019-03-16T17:44:41.021Z,13.92
2019-03-16T17:47:12.069Z,13.83
2019-03-16T17:49:43.107Z,13.70
2019-03-16T17:52:14.495Z,13.43
2019-03-16T17:54:52.360Z,13.07
2019-03-16T17:57:23.635Z,12.80
2019-03-16T17:59:55.766Z,12.55
2019-03-16T18:02:50.609Z,12.25
2019-03-16T18:05:21.625Z,11.86
2019-03-16T18:08:02.713Z,11.63
2019-03-16T18:10:33.393Z,11.54
2019-03-16T18:13:05.142Z,11.37
2019-03-16T18:15:36.225Z,11.22
2019-03-16T18:18:11.418Z,11.27
2019-03-16T18:20:42.603Z,11.35
2019-03-16T18:23:17.229Z,11.67
2019-03-16T18:25:52.655Z,12.26
2019-03-16T18:28:36.006Z,12.20
2019-03-16T18:31:13.999Z,12.16
2019-03-16T18:34:01.891Z,12.11
2019-03-16T18:36:40.529Z,11.90
2019-03-16T18:39:13.828Z,11.60
2019-03-16T18:41:44.871Z,11.34
2019-03-16T18:44:49.217Z,11.13
2019-03-16T18:47:20.295Z,10.91
2019-03-16T18:49:51.558Z,10.74
2019-03-16T18:52:29.851Z,10.65
2019-03-16T18:55:01.667Z,10.41
2019-03-16T18:57:33.087Z,10.03
2019-03-16T19:00:06.167Z,9.85
2019-03-16T19:02:49.296Z,9.72
2019-03-16T19:05:20.276Z,9.62
2019-03-16T19:07:52.960Z,9.53
2019-03-16T19:10:23.956Z,9.54
2019-03-16T19:12:55.327Z,9.41
2019-03-16T19:15:26.677Z,9.33
2019-03-16T19:18:00.914Z,9.12
2019-03-16T19:20:42.266Z,8.94
2019-03-16T19:23:40.333Z,8.74
2019-03-16T19:26:18.712Z,8.67
2019-03-16T19:28:50.697Z,8.63
2019-03-16T19:31:35.581Z,8.56
2019-03-16T19:34:25.973Z,8.45
2019-03-16T19:36:57.611Z,8.34
2019-03-16T19:39:28.969Z,8.23
2019-03-16T19:42:07.980Z,8.15
2019-03-16T19:44:39.681Z,8.15
2019-03-16T19:47:13.414Z,8.07
2019-03-16T19:49:45.169Z,7.97
2019-03-16T19:52:17.339Z,7.88
2019-03-16T19:54:48.507Z,7.86
2019-03-16T19:57:19.685Z,7.84
2019-03-16T19:59:51.073Z,7.73
2019-03-16T20:02:23.183Z,7.88
2019-03-16T20:04:56.639Z,7.79
2019-03-16T20:07:27.850Z,7.73
2019-03-16T20:10:00.523Z,7.76
2019-03-16T20:12:32.573Z,7.70
2019-03-16T20:15:04.330Z,7.77
2019-03-16T20:17:35.453Z,7.80
2019-03-16T20:20:09.428Z,7.53
2019-03-16T20:22:40.703Z,7.56
2019-03-16T20:25:11.948Z,7.43
2019-03-16T20:27:43.528Z,7.17
2019-03-16T20:30:26.833Z,6.96
2019-03-16T20:33:03.783Z,6.91
2019-03-16T20:35:30.083Z,6.81
2019-03-16T20:38:01.827Z,6.88
2019-03-16T20:40:33.625Z,6.70
2019-03-16T20:43:04.631Z,6.66
2019-03-16T20:45:35.852Z,6.63
2019-03-16T20:48:18.779Z,6.61
2019-03-16T20:50:49.791Z,6.57
2019-03-16T20:53:21.386Z,6.43
2019-03-16T20:55:53.086Z,6.30
2019-03-16T20:58:27.963Z,6.31
2019-03-16T21:00:59.966Z,6.49
2019-03-16T21:03:30.597Z,6.57
2019-03-16T21:06:01.670Z,6.51
2019-03-16T21:08:32.857Z,6.22
2019-03-16T21:11:11.444Z,6.13
2019-03-16T21:13:43.470Z,6.15
2019-03-16T21:16:14.360Z,6.18
2019-03-16T21:18:45.237Z,6.18
2019-03-16T21:21:16.618Z,6.08
2019-03-16T21:24:23.292Z,6.00
2019-03-16T21:26:54.646Z,5.95
2019-03-16T21:29:26.439Z,6.18
2019-03-16T21:31:57.505Z,6.31
2019-03-16T21:34:28.588Z,6.31
2019-03-16T21:37:07.832Z,6.45
2019-03-16T21:39:39.210Z,6.42
2019-03-16T21:42:21.792Z,6.39
2019-03-16T21:44:53.240Z,6.15
2019-03-16T21:47:23.916Z,6.04
2019-03-16T21:50:00.517Z,5.91
2019-03-16T21:52:31.875Z,5.91
2019-03-16T21:55:02.730Z,5.96
2019-03-16T21:57:33.421Z,5.96
2019-03-16T22:00:04.299Z,5.97
2019-03-16T22:02:35.670Z,5.98
2019-03-16T22:05:07.234Z,5.94
2019-03-16T22:07:38.306Z,5.86
2019-03-16T22:10:09.682Z,5.83
2019-03-16T22:12:40.026Z,5.83
2019-03-16T22:15:11.125Z,5.76
2019-03-16T22:17:49.635Z,5.76
2019-03-16T22:20:20.479Z,5.54
2019-03-16T22:22:51.927Z,5.27
2019-03-16T22:25:31.093Z,5.06
2019-03-16T22:28:19.137Z,4.94
2019-03-16T22:30:57.518Z,4.85
2019-03-16T22:33:34.568Z,4.70
2019-03-16T22:36:05.298Z,4.69
2019-03-16T22:38:36.602Z,4.74
2019-03-16T22:41:08.329Z,4.78
2019-03-16T22:43:44.127Z,4.74
2019-03-16T22:46:16.260Z,4.86
2019-03-16T22:48:56.589Z,4.94
2019-03-16T22:51:28.490Z,4.99
2019-03-16T22:53:59.866Z,4.96
2019-03-16T22:56:37.951Z,4.89
2019-03-16T22:59:10.581Z,4.89
2019-03-16T23:01:42.411Z,4.83
2019-03-16T23:04:13.919Z,4.71
2019-03-16T23:06:48.427Z,4.50
2019-03-16T23:09:22.059Z,4.28
2019-03-16T23:11:56.326Z,4.26
2019-03-16T23:14:27.895Z,4.11
2019-03-16T23:16:59.683Z,4.16
2019-03-16T23:19:30.776Z,4.26
2019-03-16T23:22:04.612Z,4.26
2019-03-16T23:24:38.576Z,4.27
2019-03-16T23:27:12.204Z,4.25
2019-03-16T23:29:49.728Z,4.22
2019-03-16T23:32:25.557Z,4.16
2019-03-16T23:34:57.346Z,4.22
2019-03-16T23:37:33.841Z,4.16
2019-03-16T23:40:06.581Z,4.03
2019-03-16T23:42:49.960Z,4.01
2019-03-16T23:45:21.708Z,4.04
2019-03-16T23:47:54.200Z,4.04
2019-03-16T23:50:25.631Z,4.01
2019-03-16T23:52:58.523Z,3.86
2019-03-16T23:55:33.595Z,3.70
2019-03-16T23:58:05.370Z,3.58
